sensor_id;sensor_type;location;lat;lon;timestamp;P1;durP1;ratioP1;P2;durP2;ratioP2
12407;SDS011;6268;48.188;17.134;2022-10-26T00:01:26;2.75;;;1.92;;
12407;SDS011;6268;48.188;17.134;2022-10-26T00:03:56;4.38;;;2.05;;
12407;SDS011;6268;48.188;17.134;2022-10-26T00:06:25;2.70;;;2.38;;
12407;SDS011;6268;48.188;17.134;2022-10-26T00:08:56;3.15;;;2.10;;
12407;SDS011;6268;48.188;17.134;2022-10-26T00:11:25;2.47;;;2.10;;
12407;SDS011;6268;48.188;17.134;2022-10-26T00:13:53;2.42;;;2.22;;
12407;SDS011;6268;48.188;17.134;2022-10-26T00:16:23;2.83;;;1.88;;
12407;SDS011;6268;48.188;17.134;2022-10-26T00:18:54;3.80;;;1.95;;
12407;SDS011;6268;48.188;17.134;2022-10-26T00:21:23;2.67;;;1.90;;
12407;SDS011;6268;48.188;17.134;2022-10-26T00:23:51;1.42;;;1.17;;
12407;SDS011;6268;48.188;17.134;2022-10-26T00:26:21;1.88;;;1.27;;
12407;SDS011;6268;48.188;17.134;2022-10-26T00:28:51;1.65;;;1.55;;
12407;SDS011;6268;48.188;17.134;2022-10-26T00:31:21;2.17;;;1.45;;
12407;SDS011;6268;48.188;17.134;2022-10-26T00:33:53;2.80;;;1.60;;
12407;SDS011;6268;48.188;17.134;2022-10-26T00:36:23;4.93;;;1.40;;
12407;SDS011;6268;48.188;17.134;2022-10-26T00:38:53;2.58;;;1.40;;
12407;SDS011;6268;48.188;17.134;2022-10-26T00:41:25;4.45;;;1.50;;
12407;SDS011;6268;48.188;17.134;2022-10-26T00:43:58;2.08;;;1.25;;
12407;SDS011;6268;48.188;17.134;2022-10-26T00:46:28;2.13;;;1.40;;
12407;SDS011;6268;48.188;17.134;2022-10-26T00:49:03;4.10;;;1.50;;
12407;SDS011;6268;48.188;17.134;2022-10-26T00:51:42;3.28;;;1.40;;
12407;SDS011;6268;48.188;17.134;2022-10-26T00:54:16;3.90;;;1.60;;
12407;SDS011;6268;48.188;17.134;2022-10-26T00:56:48;1.48;;;1.13;;
12407;SDS011;6268;48.188;17.134;2022-10-26T00:59:19;3.90;;;1.42;;
12407;SDS011;6268;48.188;17.134;2022-10-26T01:01:49;1.50;;;1.40;;
12407;SDS011;6268;48.188;17.134;2022-10-26T01:04:19;2.53;;;1.05;;
12407;SDS011;6268;48.188;17.134;2022-10-26T01:06:48;2.80;;;1.45;;
12407;SDS011;6268;48.188;17.134;2022-10-26T01:09:19;2.63;;;1.27;;
12407;SDS011;6268;48.188;17.134;2022-10-26T01:11:50;2.25;;;1.27;;
12407;SDS011;6268;48.188;17.134;2022-10-26T01:14:19;1.40;;;1.10;;
12407;SDS011;6268;48.188;17.134;2022-10-26T01:16:52;3.30;;;1.45;;
12407;SDS011;6268;48.188;17.134;2022-10-26T01:19:41;3.25;;;1.70;;
12407;SDS011;6268;48.188;17.134;2022-10-26T01:22:54;2.45;;;1.70;;
12407;SDS011;6268;48.188;17.134;2022-10-26T01:25:49;3.00;;;2.28;;
12407;SDS011;6268;48.188;17.134;2022-10-26T01:28:44;5.00;;;2.97;;
12407;SDS011;6268;48.188;17.134;2022-10-26T01:31:43;4.35;;;3.92;;
12407;SDS011;6268;48.188;17.134;2022-10-26T01:34:23;4.72;;;4.28;;
12407;SDS011;6268;48.188;17.134;2022-10-26T01:37:03;4.25;;;3.72;;
12407;SDS011;6268;48.188;17.134;2022-10-26T01:39:36;4.28;;;3.88;;
12407;SDS011;6268;48.188;17.134;2022-10-26T01:42:12;6.60;;;5.82;;
12407;SDS011;6268;48.188;17.134;2022-10-26T01:44:45;7.22;;;5.60;;
12407;SDS011;6268;48.188;17.134;2022-10-26T01:47:21;7.88;;;5.40;;
12407;SDS011;6268;48.188;17.134;2022-10-26T01:49:53;6.47;;;5.13;;
12407;SDS011;6268;48.188;17.134;2022-10-26T01:52:25;7.07;;;4.50;;
12407;SDS011;6268;48.188;17.134;2022-10-26T01:54:59;4.53;;;4.13;;
12407;SDS011;6268;48.188;17.134;2022-10-26T01:57:29;7.32;;;4.65;;
12407;SDS011;6268;48.188;17.134;2022-10-26T02:00:03;4.72;;;4.32;;
12407;SDS011;6268;48.188;17.134;2022-10-26T02:05:31;4.35;;;3.95;;
12407;SDS011;6268;48.188;17.134;2022-10-26T02:08:18;6.38;;;4.35;;
12407;SDS011;6268;48.188;17.134;2022-10-26T02:11:01;7.07;;;4.72;;
12407;SDS011;6268;48.188;17.134;2022-10-26T02:13:41;4.53;;;4.22;;
12407;SDS011;6268;48.188;17.134;2022-10-26T02:16:19;6.13;;;4.43;;
12407;SDS011;6268;48.188;17.134;2022-10-26T02:18:57;5.00;;;4.28;;
12407;SDS011;6268;48.188;17.134;2022-10-26T02:21:34;3.90;;;3.60;;
12407;SDS011;6268;48.188;17.134;2022-10-26T02:24:07;3.60;;;3.40;;
12407;SDS011;6268;48.188;17.134;2022-10-26T02:26:40;5.43;;;3.55;;
12407;SDS011;6268;48.188;17.134;2022-10-26T02:29:14;3.42;;;3.03;;
12407;SDS011;6268;48.188;17.134;2022-10-26T02:31:45;5.05;;;3.25;;
12407;SDS011;6268;48.188;17.134;2022-10-26T02:34:19;4.03;;;3.72;;
12407;SDS011;6268;48.188;17.134;2022-10-26T02:36:52;3.60;;;3.05;;
12407;SDS011;6268;48.188;17.134;2022-10-26T02:39:26;4.30;;;3.20;;
12407;SDS011;6268;48.188;17.134;2022-10-26T02:42:00;3.03;;;2.72;;
12407;SDS011;6268;48.188;17.134;2022-10-26T02:44:33;3.38;;;3.15;;
12407;SDS011;6268;48.188;17.134;2022-10-26T02:47:09;5.03;;;3.53;;
12407;SDS011;6268;48.188;17.134;2022-10-26T02:49:40;6.38;;;4.45;;
12407;SDS011;6268;48.188;17.134;2022-10-26T02:52:11;6.28;;;4.30;;
12407;SDS011;6268;48.188;17.134;2022-10-26T02:54:50;6.15;;;4.07;;
12407;SDS011;6268;48.188;17.134;2022-10-26T02:57:27;3.30;;;3.00;;
12407;SDS011;6268;48.188;17.134;2022-10-26T03:00:00;7.07;;;3.60;;
12407;SDS011;6268;48.188;17.134;2022-10-26T03:02:31;5.85;;;3.30;;
12407;SDS011;6268;48.188;17.134;2022-10-26T03:05:06;5.57;;;3.03;;
12407;SDS011;6268;48.188;17.134;2022-10-26T03:07:41;5.85;;;3.15;;
12407;SDS011;6268;48.188;17.134;2022-10-26T03:10:09;3.95;;;3.47;;
12407;SDS011;6268;48.188;17.134;2022-10-26T03:12:38;3.63;;;3.28;;
12407;SDS011;6268;48.188;17.134;2022-10-26T03:15:07;5.30;;;3.40;;
12407;SDS011;6268;48.188;17.134;2022-10-26T03:17:36;5.65;;;3.50;;
12407;SDS011;6268;48.188;17.134;2022-10-26T03:20:07;3.40;;;3.10;;
12407;SDS011;6268;48.188;17.134;2022-10-26T03:22:37;4.43;;;3.13;;
12407;SDS011;6268;48.188;17.134;2022-10-26T03:25:06;3.75;;;3.33;;
12407;SDS011;6268;48.188;17.134;2022-10-26T03:27:36;3.60;;;3.30;;
12407;SDS011;6268;48.188;17.134;2022-10-26T03:30:04;4.15;;;2.80;;
12407;SDS011;6268;48.188;17.134;2022-10-26T03:32:34;2.92;;;2.72;;
12407;SDS011;6268;48.188;17.134;2022-10-26T03:35:03;3.90;;;3.30;;
12407;SDS011;6268;48.188;17.134;2022-10-26T03:37:34;3.58;;;3.15;;
12407;SDS011;6268;48.188;17.134;2022-10-26T03:40:03;3.30;;;3.00;;
12407;SDS011;6268;48.188;17.134;2022-10-26T03:42:34;4.38;;;3.22;;
12407;SDS011;6268;48.188;17.134;2022-10-26T03:45:04;5.22;;;3.30;;
12407;SDS011;6268;48.188;17.134;2022-10-26T03:47:39;5.60;;;3.22;;
12407;SDS011;6268;48.188;17.134;2022-10-26T03:50:11;3.33;;;3.03;;
12407;SDS011;6268;48.188;17.134;2022-10-26T03:52:44;9.13;;;5.05;;
12407;SDS011;6268;48.188;17.134;2022-10-26T03:55:15;4.13;;;3.72;;
12407;SDS011;6268;48.188;17.134;2022-10-26T03:57:44;10.27;;;7.22;;
12407;SDS011;6268;48.188;17.134;2022-10-26T04:00:14;4.95;;;4.30;;
12407;SDS011;6268;48.188;17.134;2022-10-26T04:02:45;7.57;;;4.68;;
12407;SDS011;6268;48.188;17.134;2022-10-26T04:05:21;5.20;;;4.78;;
12407;SDS011;6268;48.188;17.134;2022-10-26T04:07:52;5.90;;;4.80;;
12407;SDS011;6268;48.188;17.134;2022-10-26T04:10:22;6.45;;;5.80;;
12407;SDS011;6268;48.188;17.134;2022-10-26T04:12:53;5.10;;;4.60;;
12407;SDS011;6268;48.188;17.134;2022-10-26T04:15:22;5.65;;;5.15;;
12407;SDS011;6268;48.188;17.134;2022-10-26T04:17:55;4.65;;;3.50;;
12407;SDS011;6268;48.188;17.134;2022-10-26T04:20:25;4.30;;;3.47;;
12407;SDS011;6268;48.188;17.134;2022-10-26T04:22:57;4.25;;;3.83;;
12407;SDS011;6268;48.188;17.134;2022-10-26T04:25:27;8.43;;;4.00;;
12407;SDS011;6268;48.188;17.134;2022-10-26T04:27:58;3.95;;;3.55;;
12407;SDS011;6268;48.188;17.134;2022-10-26T04:30:28;3.97;;;3.63;;
12407;SDS011;6268;48.188;17.134;2022-10-26T04:32:57;5.15;;;3.80;;
12407;SDS011;6268;48.188;17.134;2022-10-26T04:35:26;4.40;;;4.00;;
12407;SDS011;6268;48.188;17.134;2022-10-26T04:37:57;4.00;;;3.70;;
12407;SDS011;6268;48.188;17.134;2022-10-26T04:40:27;4.15;;;3.85;;
12407;SDS011;6268;48.188;17.134;2022-10-26T04:42:57;5.78;;;3.60;;
12407;SDS011;6268;48.188;17.134;2022-10-26T04:45:27;4.63;;;3.10;;
12407;SDS011;6268;48.188;17.134;2022-10-26T04:48:00;3.25;;;3.05;;
12407;SDS011;6268;48.188;17.134;2022-10-26T04:50:33;4.10;;;3.10;;
12407;SDS011;6268;48.188;17.134;2022-10-26T04:53:04;5.85;;;3.90;;
12407;SDS011;6268;48.188;17.134;2022-10-26T04:55:33;14.23;;;11.27;;
12407;SDS011;6268;48.188;17.134;2022-10-26T04:58:02;18.23;;;13.77;;
12407;SDS011;6268;48.188;17.134;2022-10-26T05:00:31;16.58;;;13.15;;
12407;SDS011;6268;48.188;17.134;2022-10-26T05:03:01;6.70;;;5.80;;
12407;SDS011;6268;48.188;17.134;2022-10-26T05:05:32;6.10;;;4.57;;
12407;SDS011;6268;48.188;17.134;2022-10-26T05:08:04;6.55;;;5.03;;
12407;SDS011;6268;48.188;17.134;2022-10-26T05:10:33;5.50;;;5.03;;
12407;SDS011;6268;48.188;17.134;2022-10-26T05:13:01;5.13;;;4.63;;
12407;SDS011;6268;48.188;17.134;2022-10-26T05:15:30;6.32;;;5.07;;
12407;SDS011;6268;48.188;17.134;2022-10-26T05:17:59;5.80;;;4.45;;
12407;SDS011;6268;48.188;17.134;2022-10-26T05:20:31;4.47;;;4.07;;
12407;SDS011;6268;48.188;17.134;2022-10-26T05:23:02;4.82;;;4.43;;
12407;SDS011;6268;48.188;17.134;2022-10-26T05:25:35;4.57;;;4.10;;
12407;SDS011;6268;48.188;17.134;2022-10-26T05:28:05;5.15;;;4.03;;
12407;SDS011;6268;48.188;17.134;2022-10-26T05:30:37;4.72;;;4.32;;
12407;SDS011;6268;48.188;17.134;2022-10-26T05:33:07;5.05;;;4.55;;
12407;SDS011;6268;48.188;17.134;2022-10-26T05:35:38;6.72;;;4.00;;
12407;SDS011;6268;48.188;17.134;2022-10-26T05:38:08;5.05;;;4.05;;
12407;SDS011;6268;48.188;17.134;2022-10-26T05:40:45;6.78;;;4.35;;
12407;SDS011;6268;48.188;17.134;2022-10-26T05:43:14;8.55;;;5.20;;
12407;SDS011;6268;48.188;17.134;2022-10-26T05:45:45;5.22;;;4.70;;
12407;SDS011;6268;48.188;17.134;2022-10-26T05:48:16;6.03;;;5.03;;
12407;SDS011;6268;48.188;17.134;2022-10-26T05:50:45;5.70;;;5.20;;
12407;SDS011;6268;48.188;17.134;2022-10-26T05:53:15;7.45;;;6.20;;
12407;SDS011;6268;48.188;17.134;2022-10-26T05:55:44;6.57;;;5.97;;
12407;SDS011;6268;48.188;17.134;2022-10-26T05:58:13;6.47;;;5.97;;
12407;SDS011;6268;48.188;17.134;2022-10-26T06:00:48;6.88;;;6.22;;
12407;SDS011;6268;48.188;17.134;2022-10-26T06:03:41;8.55;;;6.50;;
12407;SDS011;6268;48.188;17.134;2022-10-26T06:06:33;8.38;;;7.18;;
12407;SDS011;6268;48.188;17.134;2022-10-26T06:09:12;8.43;;;7.60;;
12407;SDS011;6268;48.188;17.134;2022-10-26T06:11:42;9.88;;;8.05;;
12407;SDS011;6268;48.188;17.134;2022-10-26T06:14:12;11.40;;;8.85;;
12407;SDS011;6268;48.188;17.134;2022-10-26T06:16:45;11.80;;;10.45;;
12407;SDS011;6268;48.188;17.134;2022-10-26T06:19:35;11.98;;;9.50;;
12407;SDS011;6268;48.188;17.134;2022-10-26T06:22:24;16.13;;;9.82;;
12407;SDS011;6268;48.188;17.134;2022-10-26T06:25:08;14.88;;;10.75;;
12407;SDS011;6268;48.188;17.134;2022-10-26T06:27:56;19.50;;;12.20;;
12407;SDS011;6268;48.188;17.134;2022-10-26T06:30:38;16.42;;;14.73;;
12407;SDS011;6268;48.188;17.134;2022-10-26T06:33:07;16.30;;;12.65;;
12407;SDS011;6268;48.188;17.134;2022-10-26T06:35:55;21.38;;;14.30;;
12407;SDS011;6268;48.188;17.134;2022-10-26T06:38:37;14.73;;;13.18;;
12407;SDS011;6268;48.188;17.134;2022-10-26T06:41:12;17.45;;;14.23;;
12407;SDS011;6268;48.188;17.134;2022-10-26T06:43:44;16.10;;;14.32;;
12407;SDS011;6268;48.188;17.134;2022-10-26T06:46:15;18.88;;;14.55;;
12407;SDS011;6268;48.188;17.134;2022-10-26T06:49:01;15.00;;;13.25;;
12407;SDS011;6268;48.188;17.134;2022-10-26T06:51:42;17.98;;;13.77;;
12407;SDS011;6268;48.188;17.134;2022-10-26T06:54:20;17.50;;;14.35;;
12407;SDS011;6268;48.188;17.134;2022-10-26T06:56:58;23.30;;;18.92;;
12407;SDS011;6268;48.188;17.134;2022-10-26T06:59:30;22.27;;;17.15;;
12407;SDS011;6268;48.188;17.134;2022-10-26T07:02:07;22.95;;;19.25;;
12407;SDS011;6268;48.188;17.134;2022-10-26T07:04:36;21.23;;;17.80;;
12407;SDS011;6268;48.188;17.134;2022-10-26T07:07:05;24.42;;;20.58;;
12407;SDS011;6268;48.188;17.134;2022-10-26T07:09:35;23.08;;;19.13;;
12407;SDS011;6268;48.188;17.134;2022-10-26T07:12:06;21.38;;;19.02;;
12407;SDS011;6268;48.188;17.134;2022-10-26T07:14:35;22.67;;;19.15;;
12407;SDS011;6268;48.188;17.134;2022-10-26T07:17:04;25.23;;;20.20;;
12407;SDS011;6268;48.188;17.134;2022-10-26T07:19:33;20.88;;;18.67;;
12407;SDS011;6268;48.188;17.134;2022-10-26T07:22:02;25.65;;;20.95;;
12407;SDS011;6268;48.188;17.134;2022-10-26T07:24:31;27.20;;;22.60;;
12407;SDS011;6268;48.188;17.134;2022-10-26T07:26:59;26.63;;;20.27;;
12407;SDS011;6268;48.188;17.134;2022-10-26T07:29:29;26.90;;;20.60;;
12407;SDS011;6268;48.188;17.134;2022-10-26T07:31:59;28.50;;;20.70;;
12407;SDS011;6268;48.188;17.134;2022-10-26T07:34:28;30.77;;;21.35;;
12407;SDS011;6268;48.188;17.134;2022-10-26T07:36:57;35.85;;;24.98;;
12407;SDS011;6268;48.188;17.134;2022-10-26T07:39:26;33.08;;;23.45;;
12407;SDS011;6268;48.188;17.134;2022-10-26T07:41:58;33.80;;;23.65;;
12407;SDS011;6268;48.188;17.134;2022-10-26T07:44:26;37.08;;;23.83;;
12407;SDS011;6268;48.188;17.134;2022-10-26T07:46:56;36.80;;;23.73;;
12407;SDS011;6268;48.188;17.134;2022-10-26T07:49:26;30.25;;;20.73;;
12407;SDS011;6268;48.188;17.134;2022-10-26T07:51:54;34.53;;;22.23;;
12407;SDS011;6268;48.188;17.134;2022-10-26T07:54:23;32.67;;;21.80;;
12407;SDS011;6268;48.188;17.134;2022-10-26T07:56:52;27.83;;;21.10;;
12407;SDS011;6268;48.188;17.134;2022-10-26T07:59:20;28.48;;;21.40;;
12407;SDS011;6268;48.188;17.134;2022-10-26T08:01:49;26.30;;;20.80;;
12407;SDS011;6268;48.188;17.134;2022-10-26T08:04:20;29.67;;;21.85;;
12407;SDS011;6268;48.188;17.134;2022-10-26T08:06:48;30.70;;;23.65;;
12407;SDS011;6268;48.188;17.134;2022-10-26T08:09:17;32.20;;;22.88;;
12407;SDS011;6268;48.188;17.134;2022-10-26T08:11:46;32.92;;;23.08;;
12407;SDS011;6268;48.188;17.134;2022-10-26T08:14:14;34.22;;;23.45;;
12407;SDS011;6268;48.188;17.134;2022-10-26T08:16:43;45.58;;;24.58;;
12407;SDS011;6268;48.188;17.134;2022-10-26T08:19:12;30.08;;;22.23;;
12407;SDS011;6268;48.188;17.134;2022-10-26T08:21:42;29.77;;;20.48;;
12407;SDS011;6268;48.188;17.134;2022-10-26T08:24:10;27.40;;;19.90;;
12407;SDS011;6268;48.188;17.134;2022-10-26T08:26:39;25.33;;;18.67;;
12407;SDS011;6268;48.188;17.134;2022-10-26T08:29:08;28.23;;;18.92;;
12407;SDS011;6268;48.188;17.134;2022-10-26T08:31:37;25.17;;;17.95;;
12407;SDS011;6268;48.188;17.134;2022-10-26T08:34:05;23.42;;;17.65;;
12407;SDS011;6268;48.188;17.134;2022-10-26T08:36:34;25.27;;;18.42;;
12407;SDS011;6268;48.188;17.134;2022-10-26T08:39:06;29.40;;;19.10;;
12407;SDS011;6268;48.188;17.134;2022-10-26T08:41:35;25.42;;;18.63;;
12407;SDS011;6268;48.188;17.134;2022-10-26T08:44:12;24.80;;;17.52;;
12407;SDS011;6268;48.188;17.134;2022-10-26T08:47:00;32.22;;;26.75;;
12407;SDS011;6268;48.188;17.134;2022-10-26T08:49:39;32.50;;;25.70;;
12407;SDS011;6268;48.188;17.134;2022-10-26T08:52:18;31.58;;;24.73;;
12407;SDS011;6268;48.188;17.134;2022-10-26T08:54:54;27.58;;;22.23;;
12407;SDS011;6268;48.188;17.134;2022-10-26T08:57:34;38.03;;;30.75;;
12407;SDS011;6268;48.188;17.134;2022-10-26T09:00:10;49.83;;;36.17;;
12407;SDS011;6268;48.188;17.134;2022-10-26T09:02:44;34.95;;;27.80;;
12407;SDS011;6268;48.188;17.134;2022-10-26T09:05:17;32.83;;;24.10;;
12407;SDS011;6268;48.188;17.134;2022-10-26T09:07:52;32.55;;;26.25;;
12407;SDS011;6268;48.188;17.134;2022-10-26T09:10:38;26.27;;;18.23;;
12407;SDS011;6268;48.188;17.134;2022-10-26T09:13:20;36.28;;;23.52;;
12407;SDS011;6268;48.188;17.134;2022-10-26T09:16:03;39.95;;;26.58;;
12407;SDS011;6268;48.188;17.134;2022-10-26T09:18:48;22.30;;;16.65;;
12407;SDS011;6268;48.188;17.134;2022-10-26T09:21:31;29.38;;;20.65;;
12407;SDS011;6268;48.188;17.134;2022-10-26T09:24:12;30.83;;;23.65;;
12407;SDS011;6268;48.188;17.134;2022-10-26T09:26:48;26.08;;;20.08;;
12407;SDS011;6268;48.188;17.134;2022-10-26T09:29:23;21.67;;;17.70;;
12407;SDS011;6268;48.188;17.134;2022-10-26T09:31:55;21.05;;;17.70;;
12407;SDS011;6268;48.188;17.134;2022-10-26T09:34:30;35.95;;;24.20;;
12407;SDS011;6268;48.188;17.134;2022-10-26T09:37:10;37.38;;;28.25;;
12407;SDS011;6268;48.188;17.134;2022-10-26T09:39:46;28.25;;;20.50;;
12407;SDS011;6268;48.188;17.134;2022-10-26T09:42:27;28.95;;;20.95;;
12407;SDS011;6268;48.188;17.134;2022-10-26T09:45:09;36.72;;;19.88;;
12407;SDS011;6268;48.188;17.134;2022-10-26T09:47:45;25.50;;;19.88;;
12407;SDS011;6268;48.188;17.134;2022-10-26T09:50:20;39.72;;;21.90;;
12407;SDS011;6268;48.188;17.134;2022-10-26T09:52:55;70.55;;;27.13;;
12407;SDS011;6268;48.188;17.134;2022-10-26T09:55:24;30.23;;;22.25;;
12407;SDS011;6268;48.188;17.134;2022-10-26T09:57:56;31.23;;;21.65;;
12407;SDS011;6268;48.188;17.134;2022-10-26T10:00:29;29.58;;;22.05;;
12407;SDS011;6268;48.188;17.134;2022-10-26T10:03:01;31.75;;;21.45;;
12407;SDS011;6268;48.188;17.134;2022-10-26T10:05:30;36.40;;;23.10;;
12407;SDS011;6268;48.188;17.134;2022-10-26T10:08:19;95.35;;;31.40;;
12407;SDS011;6268;48.188;17.134;2022-10-26T10:10:53;26.15;;;19.80;;
12407;SDS011;6268;48.188;17.134;2022-10-26T10:13:27;28.73;;;20.23;;
12407;SDS011;6268;48.188;17.134;2022-10-26T10:16:01;32.53;;;21.45;;
12407;SDS011;6268;48.188;17.134;2022-10-26T10:18:33;30.17;;;21.70;;
12407;SDS011;6268;48.188;17.134;2022-10-26T10:21:04;31.83;;;20.63;;
12407;SDS011;6268;48.188;17.134;2022-10-26T10:23:34;28.02;;;20.35;;
12407;SDS011;6268;48.188;17.134;2022-10-26T10:26:17;25.27;;;18.52;;
12407;SDS011;6268;48.188;17.134;2022-10-26T10:28:56;27.85;;;21.02;;
12407;SDS011;6268;48.188;17.134;2022-10-26T10:31:29;28.88;;;22.13;;
12407;SDS011;6268;48.188;17.134;2022-10-26T10:34:01;27.85;;;19.20;;
12407;SDS011;6268;48.188;17.134;2022-10-26T10:36:43;26.20;;;18.48;;
12407;SDS011;6268;48.188;17.134;2022-10-26T10:39:22;32.60;;;23.00;;
12407;SDS011;6268;48.188;17.134;2022-10-26T10:42:10;24.08;;;18.70;;
12407;SDS011;6268;48.188;17.134;2022-10-26T10:44:47;30.67;;;21.15;;
12407;SDS011;6268;48.188;17.134;2022-10-26T10:47:22;52.67;;;30.60;;
12407;SDS011;6268;48.188;17.134;2022-10-26T10:49:55;51.90;;;30.30;;
12407;SDS011;6268;48.188;17.134;2022-10-26T10:52:29;42.30;;;26.35;;
12407;SDS011;6268;48.188;17.134;2022-10-26T10:55:03;69.03;;;35.83;;
12407;SDS011;6268;48.188;17.134;2022-10-26T10:57:48;35.88;;;23.60;;
12407;SDS011;6268;48.188;17.134;2022-10-26T11:00:36;26.92;;;18.92;;
12407;SDS011;6268;48.188;17.134;2022-10-26T11:03:14;22.77;;;17.67;;
12407;SDS011;6268;48.188;17.134;2022-10-26T11:06:10;50.60;;;31.25;;
12407;SDS011;6268;48.188;17.134;2022-10-26T11:08:46;55.97;;;33.58;;
12407;SDS011;6268;48.188;17.134;2022-10-26T11:11:22;50.53;;;30.77;;
12407;SDS011;6268;48.188;17.134;2022-10-26T11:13:59;47.95;;;29.83;;
12407;SDS011;6268;48.188;17.134;2022-10-26T11:16:36;50.60;;;31.35;;
12407;SDS011;6268;48.188;17.134;2022-10-26T11:19:14;34.10;;;24.25;;
12407;SDS011;6268;48.188;17.134;2022-10-26T11:21:49;35.92;;;25.00;;
12407;SDS011;6268;48.188;17.134;2022-10-26T11:24:22;34.85;;;25.15;;
12407;SDS011;6268;48.188;17.134;2022-10-26T11:26:56;35.25;;;25.35;;
12407;SDS011;6268;48.188;17.134;2022-10-26T11:29:39;32.05;;;23.02;;
12407;SDS011;6268;48.188;17.134;2022-10-26T11:32:21;25.13;;;18.85;;
12407;SDS011;6268;48.188;17.134;2022-10-26T11:34:57;28.23;;;21.17;;
12407;SDS011;6268;48.188;17.134;2022-10-26T11:37:38;33.40;;;23.50;;
12407;SDS011;6268;48.188;17.134;2022-10-26T11:40:25;28.38;;;22.50;;
12407;SDS011;6268;48.188;17.134;2022-10-26T11:43:07;35.15;;;25.00;;
12407;SDS011;6268;48.188;17.134;2022-10-26T11:45:46;31.83;;;22.05;;
12407;SDS011;6268;48.188;17.134;2022-10-26T11:48:31;29.48;;;21.80;;
12407;SDS011;6268;48.188;17.134;2022-10-26T11:51:08;29.35;;;21.88;;
12407;SDS011;6268;48.188;17.134;2022-10-26T11:53:46;29.45;;;22.23;;
12407;SDS011;6268;48.188;17.134;2022-10-26T11:56:30;25.17;;;19.65;;
12407;SDS011;6268;48.188;17.134;2022-10-26T11:59:07;46.22;;;29.20;;
12407;SDS011;6268;48.188;17.134;2022-10-26T12:01:46;67.18;;;39.97;;
12407;SDS011;6268;48.188;17.134;2022-10-26T12:04:19;62.72;;;39.80;;
12407;SDS011;6268;48.188;17.134;2022-10-26T12:06:57;80.97;;;45.55;;
12407;SDS011;6268;48.188;17.134;2022-10-26T12:09:35;59.38;;;36.70;;
12407;SDS011;6268;48.188;17.134;2022-10-26T12:12:11;58.78;;;33.95;;
12407;SDS011;6268;48.188;17.134;2022-10-26T12:14:50;84.63;;;46.25;;
12407;SDS011;6268;48.188;17.134;2022-10-26T12:17:30;99.72;;;51.85;;
12407;SDS011;6268;48.188;17.134;2022-10-26T12:20:13;91.68;;;48.95;;
12407;SDS011;6268;48.188;17.134;2022-10-26T12:23:21;79.68;;;42.63;;
12407;SDS011;6268;48.188;17.134;2022-10-26T12:29:26;41.28;;;28.55;;
12407;SDS011;6268;48.188;17.134;2022-10-26T12:35:31;47.58;;;30.13;;
12407;SDS011;6268;48.188;17.134;2022-10-26T12:41:23;46.90;;;29.55;;
12407;SDS011;6268;48.188;17.134;2022-10-26T12:44:01;42.85;;;28.77;;
12407;SDS011;6268;48.188;17.134;2022-10-26T12:47:01;53.88;;;33.60;;
12407;SDS011;6268;48.188;17.134;2022-10-26T12:52:49;67.60;;;42.08;;
12407;SDS011;6268;48.188;17.134;2022-10-26T12:58:41;56.22;;;38.08;;
12407;SDS011;6268;48.188;17.134;2022-10-26T13:01:42;60.53;;;38.13;;
12407;SDS011;6268;48.188;17.134;2022-10-26T13:07:57;58.67;;;38.05;;
12407;SDS011;6268;48.188;17.134;2022-10-26T13:10:30;59.53;;;36.75;;
12407;SDS011;6268;48.188;17.134;2022-10-26T13:13:01;59.20;;;37.30;;
12407;SDS011;6268;48.188;17.134;2022-10-26T13:15:35;58.75;;;38.25;;
12407;SDS011;6268;48.188;17.134;2022-10-26T13:18:07;53.40;;;36.88;;
12407;SDS011;6268;48.188;17.134;2022-10-26T13:20:53;55.28;;;37.33;;
12407;SDS011;6268;48.188;17.134;2022-10-26T13:23:35;56.33;;;38.35;;
12407;SDS011;6268;48.188;17.134;2022-10-26T13:26:08;64.20;;;41.17;;
12407;SDS011;6268;48.188;17.134;2022-10-26T13:28:46;62.88;;;41.70;;
12407;SDS011;6268;48.188;17.134;2022-10-26T13:34:25;61.90;;;41.88;;
12407;SDS011;6268;48.188;17.134;2022-10-26T13:37:06;66.45;;;43.03;;
12407;SDS011;6268;48.188;17.134;2022-10-26T13:39:48;68.57;;;43.80;;
12407;SDS011;6268;48.188;17.134;2022-10-26T13:42:22;71.20;;;45.05;;
12407;SDS011;6268;48.188;17.134;2022-10-26T13:44:54;65.90;;;43.75;;
12407;SDS011;6268;48.188;17.134;2022-10-26T13:47:39;66.30;;;43.15;;
12407;SDS011;6268;48.188;17.134;2022-10-26T13:50:16;65.32;;;43.45;;
12407;SDS011;6268;48.188;17.134;2022-10-26T13:52:57;69.78;;;44.35;;
12407;SDS011;6268;48.188;17.134;2022-10-26T13:55:50;72.90;;;46.10;;
12407;SDS011;6268;48.188;17.134;2022-10-26T13:58:57;66.05;;;43.17;;
12407;SDS011;6268;48.188;17.134;2022-10-26T14:01:45;68.75;;;40.88;;
12407;SDS011;6268;48.188;17.134;2022-10-26T14:04:44;61.78;;;38.58;;
12407;SDS011;6268;48.188;17.134;2022-10-26T14:07:15;80.90;;;52.80;;
12407;SDS011;6268;48.188;17.134;2022-10-26T14:09:49;64.25;;;38.80;;
12407;SDS011;6268;48.188;17.134;2022-10-26T14:12:25;63.67;;;39.13;;
12407;SDS011;6268;48.188;17.134;2022-10-26T14:15:00;62.05;;;36.83;;
12407;SDS011;6268;48.188;17.134;2022-10-26T14:17:34;60.28;;;37.60;;
12407;SDS011;6268;48.188;17.134;2022-10-26T14:20:03;67.32;;;39.47;;
12407;SDS011;6268;48.188;17.134;2022-10-26T14:22:37;61.97;;;38.75;;
12407;SDS011;6268;48.188;17.134;2022-10-26T14:25:16;68.25;;;41.17;;
12407;SDS011;6268;48.188;17.134;2022-10-26T14:28:23;78.63;;;42.67;;
12407;SDS011;6268;48.188;17.134;2022-10-26T14:31:09;70.70;;;40.63;;
12407;SDS011;6268;48.188;17.134;2022-10-26T14:33:44;65.10;;;41.03;;
12407;SDS011;6268;48.188;17.134;2022-10-26T14:36:13;62.22;;;37.78;;
12407;SDS011;6268;48.188;17.134;2022-10-26T14:38:44;62.53;;;39.67;;
12407;SDS011;6268;48.188;17.134;2022-10-26T14:41:16;69.50;;;41.50;;
12407;SDS011;6268;48.188;17.134;2022-10-26T14:43:47;69.88;;;42.25;;
12407;SDS011;6268;48.188;17.134;2022-10-26T14:46:17;64.57;;;39.75;;
12407;SDS011;6268;48.188;17.134;2022-10-26T14:48:51;68.30;;;41.03;;
12407;SDS011;6268;48.188;17.134;2022-10-26T14:51:25;65.05;;;39.75;;
12407;SDS011;6268;48.188;17.134;2022-10-26T14:53:56;65.93;;;40.42;;
12407;SDS011;6268;48.188;17.134;2022-10-26T14:56:28;64.75;;;39.85;;
12407;SDS011;6268;48.188;17.134;2022-10-26T14:59:11;63.38;;;39.83;;
12407;SDS011;6268;48.188;17.134;2022-10-26T15:01:49;63.03;;;41.72;;
12407;SDS011;6268;48.188;17.134;2022-10-26T15:04:26;69.78;;;43.50;;
12407;SDS011;6268;48.188;17.134;2022-10-26T15:07:14;64.40;;;40.83;;
12407;SDS011;6268;48.188;17.134;2022-10-26T15:09:45;62.92;;;41.78;;
12407;SDS011;6268;48.188;17.134;2022-10-26T15:12:20;65.28;;;41.55;;
12407;SDS011;6268;48.188;17.134;2022-10-26T15:14:58;66.35;;;40.78;;
12407;SDS011;6268;48.188;17.134;2022-10-26T15:17:52;68.43;;;39.75;;
12407;SDS011;6268;48.188;17.134;2022-10-26T15:20:23;73.10;;;45.20;;
12407;SDS011;6268;48.188;17.134;2022-10-26T15:22:54;63.55;;;40.45;;
12407;SDS011;6268;48.188;17.134;2022-10-26T15:25:26;65.22;;;41.08;;
12407;SDS011;6268;48.188;17.134;2022-10-26T15:28:07;67.60;;;40.67;;
12407;SDS011;6268;48.188;17.134;2022-10-26T15:30:43;60.05;;;38.95;;
12407;SDS011;6268;48.188;17.134;2022-10-26T15:33:33;67.60;;;39.72;;
12407;SDS011;6268;48.188;17.134;2022-10-26T15:36:11;79.30;;;48.75;;
12407;SDS011;6268;48.188;17.134;2022-10-26T15:38:42;77.95;;;52.05;;
12407;SDS011;6268;48.188;17.134;2022-10-26T15:41:13;63.80;;;39.83;;
12407;SDS011;6268;48.188;17.134;2022-10-26T15:43:49;56.15;;;36.65;;